Time;durP1;ratioP1;P1;durP2;ratioP2;P2;SDS_P1;SDS_P2;PMS_P1;PMS_P2;Temp;Humidity;BMP_temperature;BMP_pressure;BME280_temperature;BME280_humidity;BME280_pressure;Samples;Min_cycle;Max_cycle;Signal;HPM_P1;HPM_P2
2024/01/07 00:03:16;;;;;;;27.73;12.20;;;;;;;;;;5030349;28;20044;-80
2024/01/07 00:05:43;;;;;;;29.00;13.27;;;;;;;;;;5012205;28;20025;-81
2024/01/07 00:08:15;;;;;;;27.90;12.18;;;;;;;;;;5016690;28;20033;-80
2024/01/07 00:10:57;;;;;;;25.15;12.35;;;;;;;;;;5035454;28;20532;-80
2024/01/07 00:14:08;;;;;;;28.70;12.10;;;;;;;;;;5033355;28;20114;-81
2024/01/07 00:16:40;;;;;;;26.08;12.25;;;;;;;;;;5049626;28;20052;-82
2024/01/07 00:19:12;;;;;;;24.23;11.68;;;;;;;;;;5053000;28;20029;-82
2024/01/07 00:21:42;;;;;;;34.67;13.40;;;;;;;;;;5052752;28;20064;-82
2024/01/07 00:24:17;;;;;;;25.85;12.48;;;;;;;;;;5044003;28;20045;-82
2024/01/07 00:26:53;;;;;;;31.40;13.20;;;;;;;;;;5030287;28;20045;-81
2024/01/07 00:29:28;;;;;;;25.85;12.07;;;;;;;;;;5018659;28;20030;-81
2024/01/07 00:32:01;;;;;;;24.52;10.88;;;;;;;;;;5028149;28;20139;-81
2024/01/07 00:34:29;;;;;;;22.17;10.77;;;;;;;;;;5013414;28;20057;-82
2024/01/07 00:37:44;;;;;;;25.90;10.88;;;;;;;;;;5023902;28;20048;-81
2024/01/07 00:40:18;;;;;;;20.45;9.40;;;;;;;;;;5025035;28;20056;-80
2024/01/07 00:45:57;;;;;;;23.10;10.35;;;;;;;;;;5047839;22;20099;-81
2024/01/07 00:48:23;;;;;;;24.80;10.20;;;;;;;;;;5007800;28;20611;-81
2024/01/07 00:50:49;;;;;;;27.27;10.45;;;;;;;;;;4992219;28;20029;-81
2024/01/07 00:53:15;;;;;;;20.67;10.45;;;;;;;;;;4994937;28;20041;-81
2024/01/07 01:09:45;;;;;;;22.95;9.40;;;;;;;;;;5224512;23;20059;-83
2024/01/07 01:12:11;;;;;;;23.00;9.77;;;;;;;;;;4931375;29;20035;-83
2024/01/07 01:14:37;;;;;;;18.95;8.60;;;;;;;;;;4941981;28;20034;-83
2024/01/07 01:17:02;;;;;;;20.77;9.60;;;;;;;;;;4934595;28;20023;-83
2024/01/07 01:19:28;;;;;;;27.85;9.60;;;;;;;;;;4934959;28;20114;-83
2024/01/07 01:21:54;;;;;;;23.25;9.45;;;;;;;;;;4933516;28;20035;-83
2024/01/07 01:24:20;;;;;;;27.38;9.77;;;;;;;;;;4955795;28;20031;-83
2024/01/07 01:26:45;;;;;;;22.30;9.52;;;;;;;;;;4983491;28;20371;-83
2024/01/07 01:29:11;;;;;;;20.63;9.15;;;;;;;;;;4952353;28;20057;-83
2024/01/07 01:31:37;;;;;;;23.27;9.23;;;;;;;;;;4931055;28;20525;-83
2024/01/07 01:34:05;;;;;;;21.35;8.95;;;;;;;;;;4934528;28;20074;-83
2024/01/07 01:36:31;;;;;;;22.55;9.10;;;;;;;;;;4936362;28;20038;-83
2024/01/07 01:38:57;;;;;;;19.77;9.07;;;;;;;;;;4947864;29;20479;-83
2024/01/07 01:41:23;;;;;;;21.42;9.13;;;;;;;;;;4902376;29;20057;-83
2024/01/07 01:43:49;;;;;;;21.50;8.98;;;;;;;;;;4929498;29;20118;-83
2024/01/07 01:46:15;;;;;;;20.45;9.73;;;;;;;;;;4927174;29;20058;-83
2024/01/07 01:48:41;;;;;;;16.63;7.68;;;;;;;;;;4929856;28;20069;-83
2024/01/07 01:51:07;;;;;;;19.25;10.13;;;;;;;;;;4930086;28;20027;-83
2024/01/07 01:53:33;;;;;;;19.48;9.10;;;;;;;;;;4944659;28;20498;-83
2024/01/07 01:56:01;;;;;;;15.32;8.18;;;;;;;;;;4914608;29;20027;-83
2024/01/07 01:58:28;;;;;;;17.70;8.15;;;;;;;;;;4960152;28;20410;-83
2024/01/07 02:00:55;;;;;;;18.45;7.80;;;;;;;;;;4943745;28;20070;-83
2024/01/07 02:03:20;;;;;;;20.40;8.65;;;;;;;;;;4947772;28;20031;-83
2024/01/07 02:05:48;;;;;;;16.20;8.18;;;;;;;;;;4944525;28;20045;-83
2024/01/07 02:08:14;;;;;;;19.70;8.25;;;;;;;;;;4944675;28;20030;-83
2024/01/07 02:10:39;;;;;;;16.80;7.90;;;;;;;;;;4928426;28;20089;-83
2024/01/07 02:13:05;;;;;;;15.73;8.27;;;;;;;;;;4943301;28;20521;-83
2024/01/07 02:15:31;;;;;;;18.35;8.02;;;;;;;;;;4945295;28;20030;-83
2024/01/07 02:17:56;;;;;;;17.75;7.35;;;;;;;;;;4961595;28;20023;-83
2024/01/07 02:20:22;;;;;;;19.42;7.60;;;;;;;;;;4962955;28;20062;-82
2024/01/07 02:22:48;;;;;;;15.57;7.43;;;;;;;;;;4963848;28;20035;-83
2024/01/07 02:25:14;;;;;;;15.70;7.32;;;;;;;;;;4931553;28;20065;-83
2024/01/07 02:27:39;;;;;;;16.00;8.40;;;;;;;;;;4930339;28;20031;-83
2024/01/07 02:30:05;;;;;;;18.27;7.70;;;;;;;;;;4946690;28;20097;-83
2024/01/07 02:32:34;;;;;;;15.25;6.80;;;;;;;;;;4943315;29;20506;-83
2024/01/07 02:35:00;;;;;;;14.73;7.47;;;;;;;;;;4932285;28;20042;-83
2024/01/07 02:37:25;;;;;;;13.68;7.45;;;;;;;;;;4931269;28;20026;-83
2024/01/07 02:39:52;;;;;;;23.02;7.88;;;;;;;;;;4943562;28;20031;-83
2024/01/07 02:42:17;;;;;;;17.75;7.55;;;;;;;;;;4927431;28;20090;-83
2024/01/07 02:44:43;;;;;;;15.00;7.55;;;;;;;;;;4926122;28;20514;-83
2024/01/07 02:47:09;;;;;;;12.68;7.32;;;;;;;;;;4942727;28;20130;-83
2024/01/07 02:49:35;;;;;;;15.13;6.70;;;;;;;;;;4930313;28;20045;-83
2024/01/07 02:52:00;;;;;;;14.50;6.32;;;;;;;;;;4945505;28;20125;-83
2024/01/07 02:54:26;;;;;;;14.63;6.28;;;;;;;;;;4931668;28;20073;-82
2024/01/07 02:56:52;;;;;;;14.10;6.47;;;;;;;;;;4933696;28;20039;-83
2024/01/07 02:59:17;;;;;;;14.45;7.13;;;;;;;;;;4935355;28;20034;-83
2024/01/07 03:01:43;;;;;;;14.30;6.80;;;;;;;;;;4948213;28;20027;-83
2024/01/07 03:04:10;;;;;;;18.98;6.85;;;;;;;;;;4930899;28;20034;-82
2024/01/07 03:06:35;;;;;;;16.70;7.68;;;;;;;;;;4930620;28;20505;-83
2024/01/07 03:09:01;;;;;;;17.17;7.45;;;;;;;;;;4929035;28;20030;-82
2024/01/07 03:11:27;;;;;;;17.70;7.47;;;;;;;;;;4943568;28;20031;-83
2024/01/07 03:13:52;;;;;;;17.55;7.97;;;;;;;;;;4925168;29;20035;-82
2024/01/07 03:16:22;;;;;;;16.50;7.38;;;;;;;;;;4921570;28;20039;-83
2024/01/07 03:18:47;;;;;;;16.05;7.05;;;;;;;;;;4940970;28;20049;-83
2024/01/07 03:21:17;;;;;;;16.05;6.65;;;;;;;;;;4960726;28;20090;-83
2024/01/07 03:23:42;;;;;;;15.25;7.20;;;;;;;;;;4928930;28;20105;-83
2024/01/07 03:26:08;;;;;;;16.02;6.72;;;;;;;;;;4960760;28;20027;-83
2024/01/07 03:28:34;;;;;;;18.80;6.97;;;;;;;;;;4945005;28;20494;-83
2024/01/07 03:31:03;;;;;;;15.57;6.05;;;;;;;;;;4928575;28;20430;-83
2024/01/07 03:33:29;;;;;;;16.73;7.15;;;;;;;;;;4944947;28;20494;-82
2024/01/07 03:35:56;;;;;;;14.52;6.25;;;;;;;;;;4960592;23;20035;-80
2024/01/07 03:38:21;;;;;;;12.50;6.55;;;;;;;;;;4929312;29;20063;-81
2024/01/07 03:40:47;;;;;;;12.40;5.32;;;;;;;;;;4927004;29;20064;-81
2024/01/07 03:43:12;;;;;;;12.63;5.72;;;;;;;;;;4953599;28;20020;-81
2024/01/07 03:45:38;;;;;;;13.32;5.78;;;;;;;;;;4945728;29;20026;-81
2024/01/07 03:48:03;;;;;;;15.32;5.30;;;;;;;;;;4930481;29;20031;-80
2024/01/07 03:50:29;;;;;;;13.82;5.03;;;;;;;;;;4944959;29;20035;-81
2024/01/07 03:52:54;;;;;;;17.05;5.32;;;;;;;;;;4926514;29;20031;-81
2024/01/07 03:55:20;;;;;;;13.30;4.53;;;;;;;;;;4920318;29;20035;-81
2024/01/07 03:57:45;;;;;;;12.88;5.50;;;;;;;;;;4889386;29;20046;-81
2024/01/07 04:00:11;;;;;;;11.00;4.93;;;;;;;;;;4920065;29;20618;-80
2024/01/07 04:02:36;;;;;;;10.50;4.80;;;;;;;;;;4904501;29;20407;-81
2024/01/07 04:05:02;;;;;;;15.77;5.13;;;;;;;;;;4904306;29;20035;-80
2024/01/07 04:07:27;;;;;;;12.35;4.85;;;;;;;;;;4920224;29;20032;-80
2024/01/07 04:09:53;;;;;;;15.80;4.25;;;;;;;;;;4919695;29;20038;-80
2024/01/07 04:12:18;;;;;;;10.55;4.45;;;;;;;;;;4937241;29;20032;-81
2024/01/07 04:14:44;;;;;;;14.65;4.28;;;;;;;;;;4919661;29;20043;-80
2024/01/07 04:17:09;;;;;;;10.45;4.20;;;;;;;;;;4915946;29;20593;-80
2024/01/07 04:19:36;;;;;;;14.52;4.85;;;;;;;;;;4904554;29;20036;-80
2024/01/07 04:22:01;;;;;;;15.68;6.07;;;;;;;;;;4937181;29;20036;-80
2024/01/07 04:24:27;;;;;;;11.18;4.40;;;;;;;;;;4904064;29;20024;-80
2024/01/07 04:26:52;;;;;;;10.13;4.45;;;;;;;;;;4904008;29;20046;-81
2024/01/07 04:29:19;;;;;;;11.45;4.05;;;;;;;;;;4904088;29;20055;-80
2024/01/07 04:31:44;;;;;;;13.70;4.28;;;;;;;;;;4904286;29;20051;-81
2024/01/07 04:34:09;;;;;;;10.95;4.22;;;;;;;;;;4904014;29;20086;-80
2024/01/07 04:36:35;;;;;;;11.20;4.50;;;;;;;;;;4888876;29;20039;-80
2024/01/07 04:39:00;;;;;;;9.65;3.63;;;;;;;;;;4905074;29;20036;-80
2024/01/07 04:41:26;;;;;;;10.50;3.88;;;;;;;;;;4922236;29;20604;-81
2024/01/07 04:43:52;;;;;;;14.40;4.13;;;;;;;;;;4939604;29;20084;-79
2024/01/07 04:46:17;;;;;;;9.77;3.80;;;;;;;;;;4922055;29;20027;-81
2024/01/07 04:48:43;;;;;;;9.60;3.88;;;;;;;;;;4923043;29;20039;-81
2024/01/07 04:51:09;;;;;;;9.05;3.92;;;;;;;;;;4946161;29;20043;-81
2024/01/07 04:53:35;;;;;;;6.47;3.30;;;;;;;;;;4929825;29;20083;-81
2024/01/07 04:56:01;;;;;;;13.82;3.97;;;;;;;;;;4929323;29;20032;-80
2024/01/07 04:58:26;;;;;;;11.88;3.92;;;;;;;;;;4912732;29;20027;-80
2024/01/07 05:00:52;;;;;;;9.43;3.65;;;;;;;;;;4903551;29;20070;-80
2024/01/07 05:03:18;;;;;;;12.25;3.40;;;;;;;;;;4919025;29;20059;-79
2024/01/07 05:05:43;;;;;;;32.15;4.95;;;;;;;;;;4934901;29;20062;-81
2024/01/07 05:08:09;;;;;;;10.40;4.32;;;;;;;;;;4903289;29;20028;-80
2024/01/07 05:10:34;;;;;;;6.90;3.75;;;;;;;;;;4902814;29;20079;-80
2024/01/07 05:13:04;;;;;;;8.35;3.42;;;;;;;;;;4887777;29;20031;-81
2024/01/07 05:15:30;;;;;;;8.50;3.78;;;;;;;;;;4903506;29;20426;-80
2024/01/07 05:17:56;;;;;;;9.73;3.92;;;;;;;;;;4918625;29;20125;-81
2024/01/07 05:20:21;;;;;;;10.63;3.78;;;;;;;;;;4917473;29;20039;-80
2024/01/07 05:22:46;;;;;;;10.07;3.55;;;;;;;;;;4903514;29;20028;-81
2024/01/07 05:25:12;;;;;;;11.75;3.83;;;;;;;;;;4891051;29;20025;-80
2024/01/07 05:27:39;;;;;;;13.73;3.47;;;;;;;;;;4923328;29;20131;-80
2024/01/07 05:30:05;;;;;;;9.27;3.45;;;;;;;;;;4907397;29;20432;-81
2024/01/07 05:32:31;;;;;;;19.33;4.40;;;;;;;;;;4905983;29;20404;-81
2024/01/07 05:34:57;;;;;;;14.85;4.03;;;;;;;;;;4904778;29;20064;-81
2024/01/07 05:37:23;;;;;;;11.93;3.28;;;;;;;;;;4921452;29;20487;-80
2024/01/07 05:39:49;;;;;;;14.45;3.45;;;;;;;;;;4923059;29;20099;-80
2024/01/07 05:42:14;;;;;;;13.02;3.83;;;;;;;;;;4906704;29;20047;-80
2024/01/07 05:44:40;;;;;;;8.27;3.15;;;;;;;;;;4922260;29;20035;-80
2024/01/07 05:47:06;;;;;;;8.68;3.47;;;;;;;;;;4922977;29;20153;-81
2024/01/07 05:49:31;;;;;;;6.50;2.95;;;;;;;;;;4907970;29;20039;-79
2024/01/07 05:51:57;;;;;;;8.68;3.00;;;;;;;;;;4907976;29;20042;-82
2024/01/07 05:54:23;;;;;;;10.05;3.42;;;;;;;;;;4907077;29;20036;-80
2024/01/07 05:56:48;;;;;;;9.65;3.67;;;;;;;;;;4923047;29;20865;-81
2024/01/07 05:59:14;;;;;;;7.45;3.33;;;;;;;;;;4881256;29;20027;-81
2024/01/07 06:01:39;;;;;;;21.02;4.97;;;;;;;;;;4907257;29;20031;-81
2024/01/07 06:04:06;;;;;;;7.47;2.80;;;;;;;;;;4923266;29;20051;-81
2024/01/07 06:06:34;;;;;;;7.72;2.63;;;;;;;;;;4910370;29;20369;-81
2024/01/07 06:08:59;;;;;;;6.68;2.63;;;;;;;;;;4910489;29;20045;-82
2024/01/07 06:11:25;;;;;;;8.93;3.40;;;;;;;;;;4911261;29;20499;-80
2024/01/07 06:13:50;;;;;;;8.43;2.80;;;;;;;;;;4909584;29;20040;-81
2024/01/07 06:16:16;;;;;;;5.72;2.80;;;;;;;;;;4931793;29;20048;-81
2024/01/07 06:18:42;;;;;;;11.20;3.17;;;;;;;;;;4914617;29;20035;-81
2024/01/07 06:21:07;;;;;;;8.10;3.13;;;;;;;;;;4922202;29;20059;-81
2024/01/07 06:23:33;;;;;;;7.28;2.63;;;;;;;;;;4940523;29;20031;-80
2024/01/07 06:25:59;;;;;;;6.45;2.70;;;;;;;;;;4929379;29;20087;-81
2024/01/07 06:28:24;;;;;;;6.97;2.22;;;;;;;;;;4930410;29;20023;-81
2024/01/07 06:30:53;;;;;;;8.85;2.88;;;;;;;;;;4930679;29;20026;-81
2024/01/07 06:33:20;;;;;;;6.72;2.45;;;;;;;;;;4915353;29;20043;-81
2024/01/07 06:35:46;;;;;;;18.13;3.35;;;;;;;;;;4913671;29;20036;-82
2024/01/07 06:38:12;;;;;;;9.45;2.75;;;;;;;;;;4922857;29;20103;-81
2024/01/07 06:40:37;;;;;;;4.90;2.38;;;;;;;;;;4917927;29;20148;-81
2024/01/07 06:43:03;;;;;;;4.68;2.10;;;;;;;;;;4932620;29;20099;-81
2024/01/07 06:45:29;;;;;;;6.13;2.72;;;;;;;;;;4906242;29;20111;-81
2024/01/07 06:47:54;;;;;;;8.13;2.45;;;;;;;;;;4906510;29;20051;-81
2024/01/07 06:50:20;;;;;;;8.90;2.65;;;;;;;;;;4905946;29;20051;-81
2024/01/07 06:52:46;;;;;;;6.03;2.33;;;;;;;;;;4905921;29;20380;-80
2024/01/07 06:55:12;;;;;;;7.53;2.35;;;;;;;;;;4921978;29;20132;-81
2024/01/07 06:57:37;;;;;;;6.40;2.58;;;;;;;;;;4938665;29;20055;-82
2024/01/07 07:00:04;;;;;;;5.75;2.13;;;;;;;;;;4938095;29;20106;-81
2024/01/07 07:02:29;;;;;;;6.95;2.40;;;;;;;;;;4922364;29;20487;-82
2024/01/07 07:04:55;;;;;;;11.73;3.08;;;;;;;;;;4921553;29;20035;-81
2024/01/07 07:07:20;;;;;;;9.57;2.72;;;;;;;;;;4921859;29;20137;-80
2024/01/07 07:09:46;;;;;;;8.88;2.33;;;;;;;;;;4906243;29;20119;-80
2024/01/07 07:12:12;;;;;;;5.13;2.25;;;;;;;;;;4921353;29;20407;-80
2024/01/07 07:14:37;;;;;;;5.03;2.22;;;;;;;;;;4905819;29;20043;-80
2024/01/07 07:17:03;;;;;;;4.88;2.25;;;;;;;;;;4920702;29;20539;-81
2024/01/07 07:19:28;;;;;;;7.10;2.50;;;;;;;;;;4937820;29;20031;-80
2024/01/07 07:21:54;;;;;;;8.73;2.90;;;;;;;;;;4906541;29;20071;-80
2024/01/07 07:24:19;;;;;;;6.72;2.60;;;;;;;;;;4914984;29;20504;-80
2024/01/07 07:26:45;;;;;;;6.65;2.42;;;;;;;;;;4916915;29;20215;-80
2024/01/07 07:29:10;;;;;;;6.85;2.60;;;;;;;;;;4922094;29;20097;-80
2024/01/07 07:31:37;;;;;;;6.95;3.03;;;;;;;;;;4906239;29;20042;-80
2024/01/07 07:34:05;;;;;;;7.55;3.00;;;;;;;;;;4889837;29;20399;-80
2024/01/07 07:36:31;;;;;;;14.63;3.47;;;;;;;;;;4938375;29;20423;-80
2024/01/07 07:38:57;;;;;;;7.50;2.67;;;;;;;;;;4904234;29;20043;-81
2024/01/07 07:41:23;;;;;;;8.40;2.63;;;;;;;;;;4890934;29;20043;-81
2024/01/07 07:43:48;;;;;;;11.82;2.83;;;;;;;;;;4905177;29;20123;-82
2024/01/07 07:46:15;;;;;;;5.93;2.42;;;;;;;;;;4901909;29;20031;-82
2024/01/07 07:48:41;;;;;;;7.75;2.92;;;;;;;;;;4893029;29;20496;-80
2024/01/07 07:51:08;;;;;;;9.77;2.92;;;;;;;;;;4920999;29;20042;-81
2024/01/07 07:53:33;;;;;;;10.50;2.72;;;;;;;;;;4920776;29;20035;-80
2024/01/07 07:55:59;;;;;;;8.43;2.60;;;;;;;;;;4921216;29;20032;-81
2024/01/07 07:58:25;;;;;;;6.05;2.83;;;;;;;;;;4889612;29;20059;-80
2024/01/07 08:00:50;;;;;;;5.82;2.72;;;;;;;;;;4905010;29;20027;-80
2024/01/07 08:03:16;;;;;;;8.95;2.67;;;;;;;;;;4890092;29;20127;-80
2024/01/07 08:05:41;;;;;;;11.68;2.83;;;;;;;;;;4889130;29;20047;-80
2024/01/07 08:08:07;;;;;;;6.28;2.55;;;;;;;;;;4904182;29;20543;-81
2024/01/07 08:10:34;;;;;;;4.95;2.00;;;;;;;;;;4922961;29;20056;-80
2024/01/07 08:12:59;;;;;;;6.53;2.70;;;;;;;;;;4918384;29;20063;-80
2024/01/07 08:15:26;;;;;;;6.70;2.70;;;;;;;;;;4915098;29;20498;-80
2024/01/07 08:17:51;;;;;;;6.43;2.55;;;;;;;;;;4920314;29;20098;-81
2024/01/07 08:20:17;;;;;;;11.90;2.60;;;;;;;;;;4908955;29;20491;-80
2024/01/07 08:22:44;;;;;;;4.82;2.10;;;;;;;;;;4904781;29;20070;-80
2024/01/07 08:25:09;;;;;;;8.18;2.75;;;;;;;;;;4903709;29;20059;-81
2024/01/07 08:27:37;;;;;;;7.20;2.38;;;;;;;;;;4904353;29;20487;-80
2024/01/07 08:30:03;;;;;;;5.55;2.15;;;;;;;;;;4935986;29;20027;-80
2024/01/07 08:32:28;;;;;;;5.55;2.38;;;;;;;;;;4916799;29;20436;-80
2024/01/07 08:34:54;;;;;;;11.43;2.88;;;;;;;;;;4917790;29;20043;-81
2024/01/07 08:37:19;;;;;;;7.57;2.63;;;;;;;;;;4903946;29;20100;-81
2024/01/07 08:39:45;;;;;;;3.83;1.95;;;;;;;;;;4920714;29;20130;-81
2024/01/07 08:42:10;;;;;;;4.75;2.15;;;;;;;;;;4898096;29;20056;-80
2024/01/07 08:44:36;;;;;;;5.38;2.47;;;;;;;;;;4903725;29;20044;-82
2024/01/07 08:47:01;;;;;;;12.57;4.25;;;;;;;;;;4904179;29;20032;-80
2024/01/07 08:49:32;;;;;;;6.28;2.55;;;;;;;;;;4904814;29;20028;-81
2024/01/07 08:51:58;;;;;;;5.80;2.40;;;;;;;;;;4904005;29;20044;-81
2024/01/07 08:54:24;;;;;;;7.75;2.58;;;;;;;;;;4889725;29;20103;-82
2024/01/07 08:56:49;;;;;;;14.95;2.83;;;;;;;;;;4919873;29;20432;-80
2024/01/07 08:59:15;;;;;;;7.43;2.25;;;;;;;;;;4937174;29;20040;-80
2024/01/07 09:01:41;;;;;;;4.75;1.73;;;;;;;;;;4917368;29;20114;-80
2024/01/07 09:04:07;;;;;;;4.70;1.90;;;;;;;;;;4894595;29;20067;-80
2024/01/07 09:06:40;;;;;;;3.95;1.92;;;;;;;;;;4920919;29;20035;-80
2024/01/07 09:09:06;;;;;;;9.63;2.30;;;;;;;;;;4920470;29;20060;-80
2024/01/07 09:11:32;;;;;;;6.53;2.20;;;;;;;;;;4890165;29;20048;-80
2024/01/07 09:13:57;;;;;;;5.50;1.90;;;;;;;;;;4909601;29;20039;-82
2024/01/07 09:16:26;;;;;;;7.07;2.35;;;;;;;;;;4937020;29;20039;-81
2024/01/07 09:18:52;;;;;;;3.22;1.40;;;;;;;;;;4943101;29;20083;-81
2024/01/07 09:21:17;;;;;;;4.97;1.90;;;;;;;;;;4927863;29;20063;-81
2024/01/07 09:23:43;;;;;;;8.18;2.38;;;;;;;;;;4907747;29;20024;-80
2024/01/07 09:26:09;;;;;;;2.67;1.35;;;;;;;;;;4924806;29;20024;-80
2024/01/07 09:28:34;;;;;;;5.00;1.90;;;;;;;;;;4928289;29;20039;-80
2024/01/07 09:31:00;;;;;;;5.82;2.00;;;;;;;;;;4935576;29;20055;-80
2024/01/07 09:33:25;;;;;;;3.33;1.45;;;;;;;;;;4904013;29;20372;-80
2024/01/07 09:35:51;;;;;;;3.03;1.52;;;;;;;;;;4904458;29;20032;-80
2024/01/07 09:38:16;;;;;;;3.45;1.58;;;;;;;;;;4922574;29;20050;-80
2024/01/07 09:40:42;;;;;;;4.60;1.67;;;;;;;;;;4926687;29;20039;-79
2024/01/07 09:43:08;;;;;;;8.25;2.28;;;;;;;;;;4922151;29;20043;-80
2024/01/07 09:45:36;;;;;;;8.18;1.83;;;;;;;;;;4920984;29;20063;-80
2024/01/07 09:48:02;;;;;;;6.60;1.50;;;;;;;;;;4907063;29;20211;-80
2024/01/07 09:50:27;;;;;;;3.55;1.40;;;;;;;;;;4899850;29;20042;-81
2024/01/07 09:52:55;;;;;;;4.18;1.77;;;;;;;;;;4907620;29;20484;-80
2024/01/07 09:55:31;;;;;;;4.25;1.58;;;;;;;;;;4905128;29;20419;-81
2024/01/07 09:57:56;;;;;;;4.30;1.40;;;;;;;;;;4917496;29;20086;-80
2024/01/07 10:00:22;;;;;;;7.20;1.67;;;;;;;;;;4936069;29;20024;-80
2024/01/07 10:02:48;;;;;;;5.00;1.92;;;;;;;;;;4902906;29;20027;-81
2024/01/07 10:05:13;;;;;;;4.95;1.95;;;;;;;;;;4887777;29;20130;-81
2024/01/07 10:07:39;;;;;;;3.72;1.60;;;;;;;;;;4903245;29;20036;-80
2024/01/07 10:10:12;;;;;;;3.13;1.52;;;;;;;;;;4919072;29;20040;-81
2024/01/07 10:12:38;;;;;;;6.47;2.00;;;;;;;;;;4888503;29;20563;-81
2024/01/07 10:15:03;;;;;;;3.80;1.70;;;;;;;;;;4902917;29;20122;-80
2024/01/07 10:17:29;;;;;;;5.10;1.55;;;;;;;;;;4903113;29;20039;-81
2024/01/07 10:19:56;;;;;;;3.00;1.20;;;;;;;;;;4900304;29;20123;-80
2024/01/07 10:22:21;;;;;;;5.97;1.70;;;;;;;;;;4893956;29;20474;-80
2024/01/07 10:24:48;;;;;;;3.58;1.60;;;;;;;;;;4918897;29;20063;-81
2024/01/07 10:27:14;;;;;;;5.00;1.52;;;;;;;;;;4918614;29;20395;-80
2024/01/07 10:29:40;;;;;;;2.45;1.20;;;;;;;;;;4887570;29;20055;-80
2024/01/07 10:32:06;;;;;;;2.95;1.30;;;;;;;;;;4887718;29;20032;-80
2024/01/07 10:34:32;;;;;;;3.40;1.30;;;;;;;;;;4918504;29;20655;-81
2024/01/07 10:37:01;;;;;;;4.82;1.90;;;;;;;;;;4903111;29;20051;-81
2024/01/07 10:39:27;;;;;;;6.53;1.52;;;;;;;;;;4935143;29;20040;-80
2024/01/07 10:41:57;;;;;;;7.03;1.67;;;;;;;;;;4902794;29;20110;-80
2024/01/07 10:44:22;;;;;;;3.75;1.33;;;;;;;;;;4887134;29;20035;-80
2024/01/07 10:46:48;;;;;;;3.22;1.35;;;;;;;;;;4888727;29;20058;-80
2024/01/07 10:49:19;;;;;;;4.93;1.80;;;;;;;;;;4919604;29;20023;-80
2024/01/07 10:51:45;;;;;;;3.40;1.40;;;;;;;;;;4920157;29;20100;-81
2024/01/07 10:54:13;;;;;;;6.63;1.30;;;;;;;;;;4887864;29;20130;-80
2024/01/07 10:56:41;;;;;;;4.57;1.60;;;;;;;;;;4903474;29;20044;-80
2024/01/07 10:59:08;;;;;;;3.53;1.35;;;;;;;;;;4918925;29;20047;-81
2024/01/07 11:01:34;;;;;;;2.30;1.10;;;;;;;;;;4918202;29;20035;-81
2024/01/07 11:04:05;;;;;;;2.95;1.30;;;;;;;;;;4901536;29;20039;-81
2024/01/07 11:06:35;;;;;;;9.05;1.67;;;;;;;;;;4887055;29;20091;-80
2024/01/07 11:09:14;;;;;;;2.47;1.27;;;;;;;;;;4903783;29;20036;-80
2024/01/07 11:11:42;;;;;;;2.42;1.17;;;;;;;;;;4921751;29;20038;-81
2024/01/07 11:14:27;;;;;;;3.58;1.40;;;;;;;;;;4906037;29;20039;-81
2024/01/07 11:16:53;;;;;;;2.28;1.02;;;;;;;;;;4926141;29;20083;-81
2024/01/07 11:19:20;;;;;;;2.83;1.20;;;;;;;;;;4890446;29;20036;-80
2024/01/07 11:21:46;;;;;;;4.57;1.70;;;;;;;;;;4905983;29;20059;-81
2024/01/07 11:24:31;;;;;;;3.47;1.15;;;;;;;;;;4939029;29;20035;-81
2024/01/07 11:27:01;;;;;;;2.85;1.25;;;;;;;;;;4906252;29;20036;-80
2024/01/07 11:29:26;;;;;;;2.88;1.27;;;;;;;;;;4921776;29;20167;-82
2024/01/07 11:31:53;;;;;;;6.90;1.52;;;;;;;;;;4906922;29;20495;-80
2024/01/07 11:34:56;;;;;;;2.88;1.25;;;;;;;;;;4922473;29;20043;-80
2024/01/07 11:37:22;;;;;;;2.83;1.10;;;;;;;;;;4831105;29;20077;-81
2024/01/07 11:39:51;;;;;;;3.65;1.15;;;;;;;;;;4884425;29;20048;-80
2024/01/07 11:42:17;;;;;;;3.03;1.27;;;;;;;;;;4922063;29;20036;-80
2024/01/07 11:44:47;;;;;;;2.47;1.33;;;;;;;;;;4921669;29;20061;-80
2024/01/07 11:47:13;;;;;;;7.68;2.03;;;;;;;;;;4921671;29;20040;-80
2024/01/07 11:49:40;;;;;;;2.95;1.33;;;;;;;;;;4891378;29;20051;-79
2024/01/07 11:52:05;;;;;;;3.78;1.48;;;;;;;;;;4923064;29;20414;-80
2024/01/07 11:54:31;;;;;;;3.97;1.30;;;;;;;;;;4891269;29;20131;-80
2024/01/07 11:56:57;;;;;;;2.95;1.52;;;;;;;;;;4893148;29;20046;-81
2024/01/07 11:59:23;;;;;;;3.08;1.00;;;;;;;;;;4892590;29;20039;-80
2024/01/07 12:01:48;;;;;;;5.18;1.08;;;;;;;;;;4913049;29;20087;-81
2024/01/07 12:04:14;;;;;;;2.67;1.08;;;;;;;;;;4940557;29;20020;-81
2024/01/07 12:06:40;;;;;;;2.53;1.10;;;;;;;;;;4943057;29;20050;-80
2024/01/07 12:09:05;;;;;;;4.45;2.00;;;;;;;;;;4942601;29;20036;-80
2024/01/07 12:11:31;;;;;;;4.68;1.27;;;;;;;;;;4926935;29;20047;-81
2024/01/07 12:16:50;;;;;;;2.65;1.08;;;;;;;;;;4989050;28;20102;-77
2024/01/07 12:19:16;;;;;;;3.85;1.02;;;;;;;;;;4978165;28;20037;-77
2024/01/07 12:21:42;;;;;;;3.25;1.10;;;;;;;;;;4973760;28;20039;-76
2024/01/07 12:24:17;;;;;;;3.78;1.55;;;;;;;;;;4957265;28;20038;-78
2024/01/07 12:26:43;;;;;;;4.07;1.50;;;;;;;;;;4960638;28;20038;-77
2024/01/07 12:29:25;;;;;;;3.95;1.52;;;;;;;;;;4974546;28;20031;-77
2024/01/07 12:32:10;;;;;;;3.67;1.27;;;;;;;;;;4968649;29;20039;-78
2024/01/07 12:34:36;;;;;;;6.60;1.70;;;;;;;;;;4985666;28;20054;-77
2024/01/07 12:37:02;;;;;;;5.25;1.80;;;;;;;;;;5647316;23;20010;-77
2024/01/07 12:39:31;;;;;;;4.15;1.50;;;;;;;;;;4953188;29;20122;-77
2024/01/07 12:42:07;;;;;;;;;;;;;;;;;;4959536;28;20033;-77
2024/01/07 12:45:07;;;;;;;4.93;1.80;;;;;;;;;;4914856;29;19915;-78
2024/01/07 12:47:33;;;;;;;3.50;1.60;;;;;;;;;;4926712;29;20086;-76
2024/01/07 12:49:59;;;;;;;4.47;1.60;;;;;;;;;;4973161;29;20050;-77
2024/01/07 12:52:27;;;;;;;9.88;1.65;;;;;;;;;;4938752;29;20038;-76
2024/01/07 12:54:54;;;;;;;4.78;1.67;;;;;;;;;;4923012;29;20054;-77
2024/01/07 12:57:29;;;;;;;3.60;1.40;;;;;;;;;;4935050;29;20055;-77
2024/01/07 13:00:28;;;;;;;5.22;1.92;;;;;;;;;;4950820;29;20130;-77
2024/01/07 13:03:25;;;;;;;4.43;1.90;;;;;;;;;;4936760;29;20038;-78
2024/01/07 13:05:52;;;;;;;4.35;1.80;;;;;;;;;;4968837;29;20037;-78
2024/01/07 13:08:22;;;;;;;4.32;1.88;;;;;;;;;;4946218;29;20038;-77
2024/01/07 13:10:48;;;;;;;4.00;1.48;;;;;;;;;;4945554;29;20039;-80
2024/01/07 13:13:14;;;;;;;8.38;2.30;;;;;;;;;;5016606;23;20458;-77
2024/01/07 13:16:02;;;;;;;3.75;1.60;;;;;;;;;;4932395;29;20043;-78
2024/01/07 13:18:28;;;;;;;10.13;2.00;;;;;;;;;;4946479;29;20031;-76
2024/01/07 13:21:03;;;;;;;3.35;1.60;;;;;;;;;;4963344;29;20039;-77
2024/01/07 13:23:43;;;;;;;6.28;2.90;;;;;;;;;;4927424;29;20122;-77
2024/01/07 13:26:10;;;;;;;6.20;2.92;;;;;;;;;;4912962;29;20031;-76
2024/01/07 13:28:35;;;;;;;5.28;2.38;;;;;;;;;;4911192;29;20043;-76
2024/01/07 13:31:06;;;;;;;3.17;1.60;;;;;;;;;;4928551;29;20055;-76
2024/01/07 13:33:32;;;;;;;4.75;1.92;;;;;;;;;;4915456;29;20043;-77
2024/01/07 13:36:30;;;;;;;3.03;1.40;;;;;;;;;;4914466;29;20039;-79
2024/01/07 13:39:07;;;;;;;8.63;2.03;;;;;;;;;;4948358;29;20027;-77
2024/01/07 13:41:36;;;;;;;6.38;3.15;;;;;;;;;;4933599;29;20082;-77
2024/01/07 13:44:20;;;;;;;6.60;2.90;;;;;;;;;;4935744;29;20024;-79
2024/01/07 13:46:46;;;;;;;5.20;1.60;;;;;;;;;;4930526;29;20038;-78
2024/01/07 13:49:34;;;;;;;5.28;2.13;;;;;;;;;;4941958;29;20088;-77
2024/01/07 13:52:30;;;;;;;6.03;1.50;;;;;;;;;;4960068;29;20036;-77
2024/01/07 13:54:59;;;;;;;2.80;1.33;;;;;;;;;;4905229;29;20072;-76
2024/01/07 13:57:24;;;;;;;5.78;2.30;;;;;;;;;;4910605;29;20087;-77
2024/01/07 13:59:50;;;;;;;3.88;1.70;;;;;;;;;;4943430;29;20044;-76
2024/01/07 14:02:19;;;;;;;5.55;1.90;;;;;;;;;;4928920;29;20055;-76
2024/01/07 14:04:44;;;;;;;6.30;1.77;;;;;;;;;;4940322;29;20399;-76
2024/01/07 14:07:10;;;;;;;5.32;1.98;;;;;;;;;;4923597;29;20031;-76
2024/01/07 14:09:36;;;;;;;4.97;1.60;;;;;;;;;;4923917;29;20039;-76
2024/01/07 14:12:02;;;;;;;5.03;1.98;;;;;;;;;;4934397;29;20040;-75
2024/01/07 14:14:28;;;;;;;6.72;2.13;;;;;;;;;;4945532;29;20131;-77
2024/01/07 14:16:59;;;;;;;6.25;2.33;;;;;;;;;;4955530;29;20063;-76
2024/01/07 14:24:41;;;;;;;7.93;2.90;;;;;;;;;;5232992;23;20087;-77
2024/01/07 14:27:06;;;;;;;13.65;4.53;;;;;;;;;;4931722;28;20042;-77
2024/01/07 14:29:35;;;;;;;8.32;3.03;;;;;;;;;;4948455;28;20082;-77
2024/01/07 14:32:02;;;;;;;3.72;1.70;;;;;;;;;;4947792;28;20498;-76
2024/01/07 14:34:28;;;;;;;7.38;2.20;;;;;;;;;;4941185;29;20038;-76
2024/01/07 14:36:53;;;;;;;4.97;2.10;;;;;;;;;;4978603;28;20026;-76
2024/01/07 14:39:19;;;;;;;5.28;1.75;;;;;;;;;;4962625;28;20034;-76
2024/01/07 14:41:46;;;;;;;6.38;2.55;;;;;;;;;;4943370;29;20450;-76
2024/01/07 14:44:12;;;;;;;7.28;2.00;;;;;;;;;;4931918;28;20042;-76
2024/01/07 14:46:38;;;;;;;7.15;2.80;;;;;;;;;;4949721;28;20038;-76
2024/01/07 14:49:04;;;;;;;5.57;2.30;;;;;;;;;;4935074;28;20122;-77
2024/01/07 14:51:31;;;;;;;7.03;2.53;;;;;;;;;;4952010;28;20031;-76
2024/01/07 14:53:57;;;;;;;7.00;2.30;;;;;;;;;;4955865;29;20554;-75
2024/01/07 14:56:26;;;;;;;4.82;1.80;;;;;;;;;;4963547;28;20370;-77
2024/01/07 14:58:52;;;;;;;6.15;1.90;;;;;;;;;;4937588;28;20055;-77
2024/01/07 15:01:18;;;;;;;5.30;2.08;;;;;;;;;;4970229;28;20039;-76
2024/01/07 15:03:44;;;;;;;8.82;1.98;;;;;;;;;;4955450;28;20061;-76
2024/01/07 15:06:11;;;;;;;7.78;2.20;;;;;;;;;;4939772;28;20486;-77
2024/01/07 15:08:36;;;;;;;6.68;1.90;;;;;;;;;;4991254;28;20840;-77